King George, VA

7:23 AM EDT on August 20, 2014 (GMT -0400)
Weedonville | Change Station
CLOSE
Current Station
Personal Weather Station
Location: King George, VA
Elevation: 120 ft
Nearby Weather Stations

Elev 120 ft 38.30 °N, 77.15 °W | Updated 21 minutes ago

Mostly Cloudy
Mostly Cloudy
65.9 °F
Feels Like 65.9 °F
N
0.0
Wind Variable Wind from NNE
Gusts 0.0 mph

Today
High -- | Low -- °F
--% Chance of Precip.
Yesterday
High -- | Low -- °F
Precip. -- in
6:27 AM 7:55 PM
Waning Crescent, 22% visible
Pressure 29.97 in
Visibility 10.0 miles
Clouds Few 5000 ft
Mostly Cloudy 11000 ft
Dew Point 64 °F
Humidity 94%
Rainfall 0.00 in
Snow Depth Not available.
UV 0 out of 12
Pollen 9.00 out of 12
Air Quality Not available.
Flu Activity Not available.
METAR KNYG 201056Z 17005KT 10SM FEW050 BKN110 22/19 A2997 RMK AO2 SLP149 T02220194

More Conditions Fewer Conditions

Pressure 29.97 in
Visibility 10.0 miles
Clouds Few 5000 ft
Mostly Cloudy 11000 ft
Dew Point 64 °F
Humidity 94%
Rainfall 0.00 in
Snow Depth Not available.
UV 0 out of 12
Pollen 9.00 out of 12
Air Quality Not available.
Flu Activity Not available.
METAR KNYG 201056Z 17005KT 10SM FEW050 BKN110 22/19 A2997 RMK AO2 SLP149 T02220194

More Conditions Fewer Conditions

10-Day Weather Forecast

Almanac

Astronomy

Aug. 20, 2014 Rise Set
Actual Time 6:27 AM EDT 7:55 PM EDT
Civil Twilight 5:59 AM EDT 8:23 PM EDT
Nautical Twilight 5:26 AM EDT 8:56 PM EDT
Astronomical Twilight 4:50 AM EDT 9:31 PM EDT
Moon 2:07 AM EDT 4:37 PM EDT
Length of Visible Light 14h 23m
Length of Day
13h 28m
Tomorrow will be 2m 16s shorter.
Waning Crescent, 22% of the Moon is Illuminated
Today
Waning Crescent
Aug 25
New
Sep 2
First Quarter
Sep 8
Full
Sep 15
Last Quarter

Today's Extremes

State Highs State Lows

Community

WunderPhotos

Upload Photos

1,745,611 photos uploaded!

Nearby

Snow Depth

Station Depth Elevation
No new snow has been reported.

Earthquake Activity

City Distance Mag. Time & Date
No recent earthquake activity has been reported nearby.
Minimum magnitude displayed is 2.5.

Coastal Water Temperatures

Place Temperature
Washington, DC 78.1 °F
Lewisetta, VA 77.0 °F
Solomons Island, MD 79.0 °F

Nearby Weather Stations